createdAt,value
2016-10-12T00:00:12.729Z,1023.15
2016-10-12T00:01:12.670Z,1023.17
2016-10-12T00:02:12.690Z,1023.15
2016-10-12T00:03:12.704Z,1023.15
2016-10-12T00:04:12.724Z,1023.16
2016-10-12T00:05:12.752Z,1023.2
2016-10-12T00:06:12.762Z,1023.22
2016-10-12T00:07:12.780Z,1023.21
2016-10-12T00:08:12.795Z,1023.17
2016-10-12T00:09:12.825Z,1023.21
2016-10-12T00:10:12.831Z,1023.21
2016-10-12T00:11:12.859Z,1023.22
2016-10-12T00:12:12.871Z,1023.26
2016-10-12T00:13:12.893Z,1023.22
2016-10-12T00:14:12.912Z,1023.24
2016-10-12T00:15:12.920Z,1023.22
2016-10-12T00:16:12.941Z,1023.21
2016-10-12T00:17:12.960Z,1023.24
2016-10-12T00:18:12.983Z,1023.32
2016-10-12T00:19:12.995Z,1023.29
2016-10-12T00:20:13.015Z,1023.28
2016-10-12T00:21:13.034Z,1023.31
2016-10-12T00:22:13.053Z,1023.29
2016-10-12T00:23:13.069Z,1023.32
2016-10-12T00:24:13.085Z,1023.31
2016-10-12T00:25:13.101Z,1023.33
2016-10-12T00:26:13.122Z,1023.31
2016-10-12T00:27:13.142Z,1023.34
2016-10-12T00:28:13.212Z,1023.3
2016-10-12T00:29:13.179Z,1023.32
2016-10-12T00:30:13.193Z,1023.34
2016-10-12T00:31:13.215Z,1023.32
2016-10-12T00:32:13.233Z,1023.3
2016-10-12T00:33:13.245Z,1023.29
2016-10-12T00:34:13.270Z,1023.31
2016-10-12T00:35:13.283Z,1023.32
2016-10-12T00:36:13.304Z,1023.28
2016-10-12T00:37:13.323Z,1023.31
2016-10-12T00:38:13.339Z,1023.3
2016-10-12T00:39:13.361Z,1023.36
2016-10-12T00:40:13.378Z,1023.3
2016-10-12T00:41:13.404Z,1023.31
2016-10-12T00:42:13.410Z,1023.31
2016-10-12T00:43:13.432Z,1023.29
2016-10-12T00:44:13.442Z,1023.29
2016-10-12T00:45:13.469Z,1023.32
2016-10-12T00:46:13.487Z,1023.31
2016-10-12T00:47:13.500Z,1023.3
2016-10-12T00:48:13.626Z,1023.31
2016-10-12T00:49:13.535Z,1023.24
2016-10-12T00:50:13.551Z,1023.3
2016-10-12T00:51:13.575Z,1023.3
2016-10-12T00:52:13.593Z,1023.33
2016-10-12T00:53:13.609Z,1023.32
2016-10-12T00:54:13.626Z,1023.33
2016-10-12T00:55:13.642Z,1023.31
2016-10-12T00:56:13.670Z,1023.31
2016-10-12T00:57:13.681Z,1023.32
2016-10-12T00:58:13.705Z,1023.33
2016-10-12T00:59:13.718Z,1023.33
2016-10-12T01:00:13.739Z,1023.31
2016-10-12T01:01:13.755Z,1023.31
2016-10-12T01:02:13.768Z,1023.34
2016-10-12T01:03:13.790Z,1023.32
2016-10-12T01:04:13.808Z,1023.34
2016-10-12T01:05:13.827Z,1023.32
2016-10-12T01:06:13.847Z,1023.3
2016-10-12T01:07:13.856Z,1023.32
2016-10-12T01:08:13.884Z,1023.31
2016-10-12T01:09:13.894Z,1023.29
2016-10-12T01:10:13.914Z,1023.28
2016-10-12T01:11:13.934Z,1023.33
2016-10-12T01:12:13.956Z,1023.33
2016-10-12T01:13:13.970Z,1023.33
2016-10-12T01:14:13.988Z,1023.29
2016-10-12T01:15:14.004Z,1023.31
2016-10-12T01:16:14.026Z,1023.34
2016-10-12T01:17:14.049Z,1023.33
2016-10-12T01:18:14.058Z,1023.35
2016-10-12T01:19:14.074Z,1023.35
2016-10-12T01:20:14.097Z,1023.29
2016-10-12T01:21:14.116Z,1023.3
2016-10-12T01:22:14.129Z,1023.33
2016-10-12T01:23:14.151Z,1023.34
2016-10-12T01:24:14.165Z,1023.34
2016-10-12T01:25:14.187Z,1023.35
2016-10-12T01:26:14.206Z,1023.35
2016-10-12T01:27:14.225Z,1023.33
2016-10-12T01:28:14.236Z,1023.36
2016-10-12T01:29:14.257Z,1023.31
2016-10-12T01:30:14.286Z,1023.34
2016-10-12T01:31:14.297Z,1023.35
2016-10-12T01:32:14.312Z,1023.34
2016-10-12T01:33:14.328Z,1023.32
2016-10-12T01:34:14.347Z,1023.28
2016-10-12T01:35:14.367Z,1023.32
2016-10-12T01:36:14.385Z,1023.34
2016-10-12T01:37:14.410Z,1023.28
2016-10-12T01:38:14.424Z,1023.29
2016-10-12T01:39:14.437Z,1023.27
2016-10-12T01:40:14.459Z,1023.26
2016-10-12T01:41:14.475Z,1023.3
2016-10-12T01:42:14.489Z,1023.29
2016-10-12T01:43:14.510Z,1023.28
2016-10-12T01:44:14.542Z,1023.3
2016-10-12T01:45:14.547Z,1023.31
2016-10-12T01:46:14.565Z,1023.27
2016-10-12T01:47:14.581Z,1023.24
2016-10-12T01:48:14.600Z,1023.24
2016-10-12T01:49:14.616Z,1023.23
2016-10-12T01:50:14.638Z,1023.24
2016-10-12T01:51:14.654Z,1023.23
2016-10-12T01:52:14.674Z,1023.21
2016-10-12T01:53:14.693Z,1023.22
2016-10-12T01:54:14.706Z,1023.19
2016-10-12T01:55:14.725Z,1023.22
2016-10-12T01:56:14.748Z,1023.2
2016-10-12T01:57:14.770Z,1023.17
2016-10-12T01:58:14.777Z,1023.21
2016-10-12T01:59:14.896Z,1023.23
2016-10-12T02:00:14.818Z,1023.24
2016-10-12T02:01:14.849Z,1023.25
2016-10-12T02:02:14.857Z,1023.21
2016-10-12T02:03:14.870Z,1023.21
2016-10-12T02:04:14.887Z,1023.2
2016-10-12T02:05:14.904Z,1023.21
2016-10-12T02:06:14.927Z,1023.17
2016-10-12T02:07:14.945Z,1023.21
2016-10-12T02:08:14.964Z,1023.21
2016-10-12T02:09:14.978Z,1023.18
2016-10-12T02:10:15.001Z,1023.19
2016-10-12T02:11:15.018Z,1023.18
2016-10-12T02:12:15.037Z,1023.18
2016-10-12T02:13:15.049Z,1023.17
2016-10-12T02:14:15.070Z,1023.2
2016-10-12T02:15:15.087Z,1023.19
2016-10-12T02:16:15.103Z,1023.14
2016-10-12T02:17:15.122Z,1023.18
2016-10-12T02:18:15.186Z,1023.15
2016-10-12T02:19:15.158Z,1023.16
2016-10-12T02:20:15.180Z,1023.15
2016-10-12T02:21:15.199Z,1023.16
2016-10-12T02:22:15.229Z,1023.17
2016-10-12T02:23:15.234Z,1023.21
2016-10-12T02:24:15.249Z,1023.18
2016-10-12T02:25:15.365Z,1023.16
2016-10-12T02:26:15.287Z,1023.18
2016-10-12T02:27:15.351Z,1023.15
2016-10-12T02:28:15.318Z,1023.15
2016-10-12T02:29:15.335Z,1023.18
2016-10-12T02:30:15.353Z,1023.19
2016-10-12T02:31:15.378Z,1023.16
2016-10-12T02:32:15.398Z,1023.17
2016-10-12T02:33:15.419Z,1023.23
2016-10-12T02:34:15.426Z,1023.22
2016-10-12T02:35:15.457Z,1023.21
2016-10-12T02:36:15.469Z,1023.25
2016-10-12T02:37:15.481Z,1023.23
2016-10-12T02:38:15.548Z,1023.19
2016-10-12T02:39:15.513Z,1023.22
2016-10-12T02:40:15.538Z,1023.22
2016-10-12T02:41:15.554Z,1023.21
2016-10-12T02:42:15.570Z,1023.22
2016-10-12T02:43:15.588Z,1023.21
2016-10-12T02:44:15.608Z,1023.19
2016-10-12T02:45:15.623Z,1023.22
2016-10-12T02:46:15.644Z,1023.21
2016-10-12T02:47:15.660Z,1023.2
2016-10-12T02:48:15.677Z,1023.23
2016-10-12T02:49:15.695Z,1023.22
2016-10-12T02:50:15.712Z,1023.2
2016-10-12T02:51:15.737Z,1023.22
2016-10-12T02:52:15.748Z,1023.26
2016-10-12T02:53:15.767Z,1023.22
2016-10-12T02:54:15.785Z,1023.28
2016-10-12T02:55:15.805Z,1023.25
2016-10-12T02:56:15.823Z,1023.28
2016-10-12T02:57:15.847Z,1023.3
2016-10-12T02:58:15.858Z,1023.23
2016-10-12T02:59:15.877Z,1023.27
2016-10-12T03:00:15.895Z,1023.2
2016-10-12T03:01:15.921Z,1023.24
2016-10-12T03:02:15.937Z,1023.22
2016-10-12T03:03:15.950Z,1023.24
2016-10-12T03:04:15.969Z,1023.19
2016-10-12T03:05:15.985Z,1023.19
2016-10-12T03:06:16.010Z,1023.18
2016-10-12T03:07:16.023Z,1023.15
2016-10-12T03:08:16.039Z,1023.13
2016-10-12T03:09:16.060Z,1023.13
2016-10-12T03:10:16.077Z,1023.19
2016-10-12T03:11:16.104Z,1023.13
2016-10-12T03:12:16.108Z,1023.15
2016-10-12T03:13:16.127Z,1023.08
2016-10-12T03:14:16.146Z,1023.11
2016-10-12T03:15:16.164Z,1023.09
2016-10-12T03:16:16.179Z,1023.06
2016-10-12T03:17:16.198Z,1023.09
2016-10-12T03:18:16.218Z,1023.09
2016-10-12T03:19:16.234Z,1023.06
2016-10-12T03:20:16.254Z,1023.08
2016-10-12T03:21:16.270Z,1023.09
2016-10-12T03:22:16.288Z,1023.1
2016-10-12T03:23:16.310Z,1023.08
2016-10-12T03:24:16.322Z,1023.09
2016-10-12T03:25:16.338Z,1023.1
2016-10-12T03:26:16.359Z,1023.13
2016-10-12T03:27:16.389Z,1023.12
2016-10-12T03:28:16.405Z,1023.14
2016-10-12T03:29:16.416Z,1023.15
2016-10-12T03:30:16.431Z,1023.16
2016-10-12T03:31:16.449Z,1023.16
2016-10-12T03:32:16.467Z,1023.17
2016-10-12T03:33:16.482Z,1023.16
2016-10-12T03:34:16.501Z,1023.14
2016-10-12T03:35:16.519Z,1023.13
2016-10-12T03:36:16.538Z,1023.14
2016-10-12T03:37:16.557Z,1023.14
2016-10-12T03:38:16.573Z,1023.18
2016-10-12T03:39:16.591Z,1023.13
2016-10-12T03:40:16.608Z,1023.14
2016-10-12T03:41:16.623Z,1023.14
2016-10-12T03:42:16.645Z,1023.18
2016-10-12T03:43:16.663Z,1023.15
2016-10-12T03:44:16.680Z,1023.13
2016-10-12T03:45:16.698Z,1023.13
2016-10-12T03:46:16.715Z,1023.16
2016-10-12T03:47:16.731Z,1023.15
2016-10-12T03:48:16.752Z,1023.16
2016-10-12T03:49:16.765Z,1023.15
2016-10-12T03:50:16.788Z,1023.18
2016-10-12T03:51:16.810Z,1023.16
2016-10-12T03:52:16.819Z,1023.18
2016-10-12T03:53:16.840Z,1023.16
2016-10-12T03:54:16.855Z,1023.16
2016-10-12T03:55:16.872Z,1023.19
2016-10-12T03:56:17.008Z,1023.16
2016-10-12T03:57:16.909Z,1023.13
2016-10-12T03:58:17.022Z,1023.17
2016-10-12T03:59:16.945Z,1023.16
2016-10-12T04:00:16.957Z,1023.18
2016-10-12T04:01:16.977Z,1023.18
2016-10-12T04:02:17.000Z,1023.18
2016-10-12T04:03:17.016Z,1023.25
2016-10-12T04:04:17.029Z,1023.2
2016-10-12T04:05:17.049Z,1023.26
2016-10-12T04:06:17.069Z,1023.23
2016-10-12T04:07:17.083Z,1023.22
2016-10-12T04:08:17.099Z,1023.23
2016-10-12T04:09:17.118Z,1023.26
2016-10-12T04:10:17.137Z,1023.27
2016-10-12T04:11:17.158Z,1023.27
2016-10-12T04:12:17.172Z,1023.29
2016-10-12T04:13:17.187Z,1023.28
2016-10-12T04:14:17.208Z,1023.26
2016-10-12T04:15:17.223Z,1023.25
2016-10-12T04:16:17.238Z,1023.27
2016-10-12T04:17:17.257Z,1023.3
2016-10-12T04:18:17.280Z,1023.29
2016-10-12T04:19:17.292Z,1023.29
2016-10-12T04:20:17.308Z,1023.3
2016-10-12T04:21:17.326Z,1023.3
2016-10-12T04:22:17.348Z,1023.28
2016-10-12T04:23:17.363Z,1023.31
2016-10-12T04:24:17.488Z,1023.31
2016-10-12T04:25:17.398Z,1023.3
2016-10-12T04:26:17.419Z,1023.3
2016-10-12T04:27:17.436Z,1023.31
2016-10-12T04:28:17.459Z,1023.29
2016-10-12T04:29:17.470Z,1023.31
2016-10-12T04:30:17.580Z,1023.32
2016-10-12T04:31:17.505Z,1023.3
2016-10-12T04:32:17.519Z,1023.34
2016-10-12T04:33:17.539Z,1023.35
2016-10-12T04:34:17.553Z,1023.3
2016-10-12T04:35:17.572Z,1023.33
2016-10-12T04:36:17.596Z,1023.3
2016-10-12T04:37:17.616Z,1023.29
2016-10-12T04:38:17.630Z,1023.3
2016-10-12T04:39:17.644Z,1023.25
2016-10-12T04:40:17.659Z,1023.27
2016-10-12T04:41:17.687Z,1023.26
2016-10-12T04:42:17.697Z,1023.27
2016-10-12T04:43:17.741Z,1023.3
2016-10-12T04:44:17.735Z,1023.26
2016-10-12T04:45:17.753Z,1023.27
2016-10-12T04:46:17.767Z,1023.23
2016-10-12T04:47:17.785Z,1023.17
2016-10-12T04:48:17.811Z,1023.18
2016-10-12T04:49:17.815Z,1023.17
2016-10-12T04:50:17.836Z,1023.17
2016-10-12T04:51:17.858Z,1023.21
2016-10-12T04:52:17.871Z,1023.22
2016-10-12T04:53:17.892Z,1023.26
2016-10-12T04:54:17.905Z,1023.27
2016-10-12T04:55:17.929Z,1023.31
2016-10-12T04:56:17.941Z,1023.29
2016-10-12T04:57:17.961Z,1023.35
2016-10-12T04:58:17.975Z,1023.32
2016-10-12T04:59:17.997Z,1023.32
2016-10-12T05:00:18.021Z,1023.35
2016-10-12T05:01:18.028Z,1023.34
2016-10-12T05:02:18.049Z,1023.42
2016-10-12T05:03:18.068Z,1023.36
2016-10-12T05:04:18.087Z,1023.38
2016-10-12T05:05:18.099Z,1023.38
2016-10-12T05:06:18.117Z,1023.35
2016-10-12T05:07:18.128Z,1023.37
2016-10-12T05:08:18.154Z,1023.35
2016-10-12T05:09:18.165Z,1023.35
2016-10-12T05:10:18.187Z,1023.34
2016-10-12T05:11:18.204Z,1023.34
2016-10-12T05:12:18.215Z,1023.31
2016-10-12T05:13:18.240Z,1023.38
2016-10-12T05:14:18.256Z,1023.33
2016-10-12T05:15:18.277Z,1023.37
2016-10-12T05:16:18.306Z,1023.35
2016-10-12T05:17:18.310Z,1023.37
2016-10-12T05:18:18.327Z,1023.36
2016-10-12T05:19:18.341Z,1023.31
2016-10-12T05:20:18.365Z,1023.29
2016-10-12T05:21:18.378Z,1023.28
2016-10-12T05:22:18.397Z,1023.31
2016-10-12T05:23:18.410Z,1023.35
2016-10-12T05:24:18.576Z,1023.37
2016-10-12T05:25:18.454Z,1023.33
2016-10-12T05:26:18.466Z,1023.34
2016-10-12T05:27:18.480Z,1023.34
2016-10-12T05:28:18.511Z,1023.38
2016-10-12T05:29:18.517Z,1023.39
2016-10-12T05:30:18.539Z,1023.35
2016-10-12T05:31:18.552Z,1023.36
2016-10-12T05:32:18.566Z,1023.31
2016-10-12T05:33:18.587Z,1023.33
2016-10-12T05:34:18.611Z,1023.34
2016-10-12T05:35:18.624Z,1023.34
2016-10-12T05:36:18.637Z,1023.32
2016-10-12T05:37:18.654Z,1023.34
2016-10-12T05:38:18.677Z,1023.35
2016-10-12T05:39:18.691Z,1023.39
2016-10-12T05:40:18.705Z,1023.44
2016-10-12T05:41:18.725Z,1023.46
2016-10-12T05:42:18.749Z,1023.49
2016-10-12T05:43:18.765Z,1023.47
2016-10-12T05:44:18.775Z,1023.51
2016-10-12T05:45:18.796Z,1023.51
2016-10-12T05:46:18.809Z,1023.47
2016-10-12T05:47:18.831Z,1023.49
2016-10-12T05:48:18.847Z,1023.46
2016-10-12T05:49:18.870Z,1023.49
2016-10-12T05:50:18.888Z,1023.52
2016-10-12T05:51:18.898Z,1023.48
2016-10-12T05:52:18.917Z,1023.52
2016-10-12T05:53:18.936Z,1023.51
2016-10-12T05:54:18.951Z,1023.54
2016-10-12T05:55:18.973Z,1023.58
2016-10-12T05:56:18.982Z,1023.59
2016-10-12T05:57:19.053Z,1023.58
2016-10-12T05:58:19.017Z,1023.64
2016-10-12T05:59:19.047Z,1023.68
2016-10-12T06:00:19.054Z,1023.66
2016-10-12T06:01:19.069Z,1023.71
2016-10-12T06:02:19.085Z,1023.73
2016-10-12T06:03:19.107Z,1023.74
2016-10-12T06:04:19.125Z,1023.72
2016-10-12T06:05:19.148Z,1023.76
2016-10-12T06:06:19.158Z,1023.73
2016-10-12T06:07:19.176Z,1023.72
2016-10-12T06:08:19.191Z,1023.76
2016-10-12T06:09:19.212Z,1023.75
2016-10-12T06:10:19.309Z,1023.73
2016-10-12T06:11:19.244Z,1023.7
2016-10-12T06:12:19.270Z,1023.75
2016-10-12T06:13:19.276Z,1023.68
2016-10-12T06:14:19.292Z,1023.75
2016-10-12T06:15:19.313Z,1023.74
2016-10-12T06:16:19.340Z,1023.75
2016-10-12T06:17:19.345Z,1023.76
2016-10-12T06:18:19.365Z,1023.73
2016-10-12T06:19:19.381Z,1023.71
2016-10-12T06:20:19.400Z,1023.72
2016-10-12T06:21:19.427Z,1023.77
2016-10-12T06:22:19.446Z,1023.76
2016-10-12T06:23:19.459Z,1023.76
2016-10-12T06:24:19.493Z,1023.77
2016-10-12T06:25:19.497Z,1023.76
2016-10-12T06:26:19.559Z,1023.75
2016-10-12T06:27:19.531Z,1023.75
2016-10-12T06:28:19.549Z,1023.75
2016-10-12T06:29:19.556Z,1023.75
2016-10-12T06:30:19.578Z,1023.75
2016-10-12T06:31:19.591Z,1023.74
2016-10-12T06:32:19.614Z,1023.77
2016-10-12T06:33:19.637Z,1023.73
2016-10-12T06:34:19.643Z,1023.79
2016-10-12T06:35:19.665Z,1023.78
2016-10-12T06:36:19.734Z,1023.77
2016-10-12T06:37:19.709Z,1023.77
2016-10-12T06:38:19.718Z,1023.75
2016-10-12T06:39:19.731Z,1023.78
2016-10-12T06:40:19.747Z,1023.77
2016-10-12T06:41:19.773Z,1023.82
2016-10-12T06:42:19.781Z,1023.83
2016-10-12T06:43:19.803Z,1023.84
2016-10-12T06:44:19.818Z,1023.86
2016-10-12T06:45:19.841Z,1023.82
2016-10-12T06:46:19.856Z,1023.86
2016-10-12T06:47:19.875Z,1023.85
2016-10-12T06:48:19.901Z,1023.86
2016-10-12T06:49:19.911Z,1023.89
2016-10-12T06:50:19.929Z,1023.83
2016-10-12T06:51:19.948Z,1023.89
2016-10-12T06:52:19.972Z,1023.89
2016-10-12T06:53:19.979Z,1023.92
2016-10-12T06:54:19.999Z,1023.89
2016-10-12T06:55:20.018Z,1023.95
2016-10-12T06:56:20.041Z,1023.98
2016-10-12T06:57:20.052Z,1023.98
2016-10-12T06:58:20.073Z,1023.97
2016-10-12T06:59:20.090Z,1024
2016-10-12T07:00:20.101Z,1023.99
2016-10-12T07:01:20.118Z,1024.01
2016-10-12T07:02:20.137Z,1023.99
2016-10-12T07:03:20.161Z,1024.01
2016-10-12T07:04:20.178Z,1024
2016-10-12T07:05:20.193Z,1024.02
2016-10-12T07:06:20.210Z,1024.07
2016-10-12T07:07:20.223Z,1024.05
2016-10-12T07:08:20.240Z,1024.07
2016-10-12T07:09:20.257Z,1024.08
2016-10-12T07:10:20.280Z,1024.07
2016-10-12T07:11:20.295Z,1024.09
2016-10-12T07:12:20.313Z,1024.09
2016-10-12T07:13:20.326Z,1024.12
2016-10-12T07:14:20.349Z,1024.11
2016-10-12T07:15:20.361Z,1024.17
2016-10-12T07:16:20.386Z,1024.14
2016-10-12T07:17:20.404Z,1024.15
2016-10-12T07:18:20.418Z,1024.16
2016-10-12T07:19:20.438Z,1024.13
2016-10-12T07:20:20.453Z,1024.15
2016-10-12T07:21:20.479Z,1024.17
2016-10-12T07:22:20.487Z,1024.15
2016-10-12T07:23:20.509Z,1024.17
2016-10-12T07:24:20.530Z,1024.15
2016-10-12T07:25:20.551Z,1024.19
2016-10-12T07:26:20.554Z,1024.18
2016-10-12T07:27:20.580Z,1024.26
2016-10-12T07:28:20.609Z,1024.19
2016-10-12T07:29:20.614Z,1024.17
2016-10-12T07:30:20.630Z,1024.17
2016-10-12T07:31:20.646Z,1024.15
2016-10-12T07:32:20.663Z,1024.2
2016-10-12T07:33:20.679Z,1024.2
2016-10-12T07:34:20.703Z,1024.22
2016-10-12T07:35:20.717Z,1024.18
2016-10-12T07:36:20.741Z,1024.15
2016-10-12T07:37:20.751Z,1024.19
2016-10-12T07:38:20.775Z,1024.19
2016-10-12T07:39:20.787Z,1024.18
2016-10-12T07:40:20.810Z,1024.24
2016-10-12T07:41:20.824Z,1024.25
2016-10-12T07:42:20.845Z,1024.27
2016-10-12T07:43:20.876Z,1024.28
2016-10-12T07:44:20.880Z,1024.3
2016-10-12T07:45:20.897Z,1024.23
2016-10-12T07:46:20.914Z,1024.28
2016-10-12T07:47:20.926Z,1024.26
2016-10-12T07:48:20.949Z,1024.32
2016-10-12T07:49:20.967Z,1024.32
2016-10-12T07:50:20.986Z,1024.35
2016-10-12T07:51:21.006Z,1024.35
2016-10-12T07:52:21.034Z,1024.36
2016-10-12T07:53:21.038Z,1024.43
2016-10-12T07:54:21.062Z,1024.41
2016-10-12T07:55:21.076Z,1024.38
2016-10-12T07:56:21.095Z,1024.42
2016-10-12T07:57:21.118Z,1024.4
2016-10-12T07:58:21.148Z,1024.39
2016-10-12T07:59:21.158Z,1024.41
2016-10-12T08:00:21.167Z,1024.37
2016-10-12T08:01:21.200Z,1024.43
2016-10-12T08:02:21.207Z,1024.47
2016-10-12T08:03:21.220Z,1024.38
2016-10-12T08:04:21.239Z,1024.37
2016-10-12T08:05:21.258Z,1024.41
2016-10-12T08:06:21.283Z,1024.35
2016-10-12T08:07:21.297Z,1024.39
2016-10-12T08:08:21.321Z,1024.42
2016-10-12T08:09:21.335Z,1024.42
2016-10-12T08:10:21.364Z,1024.37
2016-10-12T08:11:21.479Z,1024.39
2016-10-12T08:12:21.398Z,1024.47
2016-10-12T08:13:21.418Z,1024.44
2016-10-12T08:14:21.426Z,1024.44
2016-10-12T08:15:21.451Z,1024.48
2016-10-12T08:16:21.472Z,1024.56
2016-10-12T08:17:21.489Z,1024.54
2016-10-12T08:18:21.508Z,1024.5
2016-10-12T08:19:21.523Z,1024.51
2016-10-12T08:20:21.548Z,1024.53
2016-10-12T08:21:21.560Z,1024.55
2016-10-12T08:22:21.582Z,1024.53
2016-10-12T08:23:21.611Z,1024.53
2016-10-12T08:24:21.628Z,1024.53
2016-10-12T08:25:21.641Z,1024.51
2016-10-12T08:26:21.661Z,1024.57
2016-10-12T08:27:21.681Z,1024.52
2016-10-12T08:28:21.700Z,1024.48
2016-10-12T08:29:21.719Z,1024.48
2016-10-12T08:30:21.736Z,1024.44
2016-10-12T08:31:21.760Z,1024.42
2016-10-12T08:32:21.773Z,1024.47
2016-10-12T08:33:21.793Z,1024.48
2016-10-12T08:34:21.826Z,1024.48
2016-10-12T08:35:21.835Z,1024.54
2016-10-12T08:36:21.856Z,1024.5
2016-10-12T08:37:21.870Z,1024.5
2016-10-12T08:38:21.889Z,1024.42
2016-10-12T08:39:21.911Z,1024.47
2016-10-12T08:40:21.933Z,1024.46
2016-10-12T08:41:21.946Z,1024.47
2016-10-12T08:42:21.975Z,1024.48
2016-10-12T08:43:21.988Z,1024.48
2016-10-12T08:44:22.010Z,1024.41
2016-10-12T08:45:22.029Z,1024.48
2016-10-12T08:46:22.043Z,1024.42
2016-10-12T08:47:22.068Z,1024.39
2016-10-12T08:48:22.085Z,1024.44
2016-10-12T08:49:22.117Z,1024.49
2016-10-12T08:50:22.123Z,1024.53
2016-10-12T08:51:22.146Z,1024.5
2016-10-12T08:52:22.167Z,1024.5
2016-10-12T08:53:22.185Z,1024.48
2016-10-12T08:54:22.208Z,1024.48
2016-10-12T08:55:22.227Z,1024.49
2016-10-12T08:56:22.242Z,1024.54
2016-10-12T08:57:22.262Z,1024.47
2016-10-12T08:58:22.280Z,1024.48
2016-10-12T08:59:22.299Z,1024.46
2016-10-12T09:00:22.323Z,1024.42
2016-10-12T09:01:22.342Z,1024.4
2016-10-12T09:02:22.358Z,1024.39
2016-10-12T09:03:22.377Z,1024.38
2016-10-12T09:04:22.401Z,1024.38
2016-10-12T09:05:22.421Z,1024.39
2016-10-12T09:06:22.439Z,1024.34
2016-10-12T09:07:22.457Z,1024.34
2016-10-12T09:08:22.476Z,1024.3
2016-10-12T09:09:22.500Z,1024.34
2016-10-12T09:10:22.522Z,1024.35
2016-10-12T09:11:22.533Z,1024.31
2016-10-12T09:12:22.557Z,1024.28
2016-10-12T09:13:22.573Z,1024.35
2016-10-12T09:14:22.596Z,1024.37
2016-10-12T09:15:22.613Z,1024.26
2016-10-12T09:16:22.634Z,1024.24
2016-10-12T09:17:22.656Z,1024.25
2016-10-12T09:18:22.668Z,1024.23
2016-10-12T09:19:22.686Z,1024.22
2016-10-12T09:20:22.719Z,1024.24
2016-10-12T09:21:22.736Z,1024.28
2016-10-12T09:22:22.752Z,1024.25
2016-10-12T09:23:22.774Z,1024.21
2016-10-12T09:24:22.792Z,1024.24
2016-10-12T09:25:22.838Z,1024.24
2016-10-12T09:26:22.842Z,1024.25
2016-10-12T09:27:22.853Z,1024.25
2016-10-12T09:28:22.875Z,1024.3
2016-10-12T09:29:22.899Z,1024.23
2016-10-12T09:30:22.919Z,1024.29
2016-10-12T09:31:22.930Z,1024.31
2016-10-12T09:32:22.954Z,1024.3
2016-10-12T09:33:22.979Z,1024.31
2016-10-12T09:34:22.994Z,1024.33
2016-10-12T09:35:23.029Z,1024.3
2016-10-12T09:36:23.026Z,1024.36
2016-10-12T09:37:23.053Z,1024.33
2016-10-12T09:38:23.127Z,1024.28
2016-10-12T09:39:23.086Z,1024.34
2016-10-12T09:40:23.109Z,1024.29
2016-10-12T09:41:23.131Z,1024.32
2016-10-12T09:42:23.148Z,1024.33
2016-10-12T09:43:23.170Z,1024.31
2016-10-12T09:44:23.191Z,1024.29
2016-10-12T09:45:23.211Z,1024.3
2016-10-12T09:46:23.231Z,1024.3
2016-10-12T09:47:23.247Z,1024.29
2016-10-12T09:48:23.269Z,1024.31
2016-10-12T09:49:23.291Z,1024.32
2016-10-12T09:50:23.304Z,1024.25
2016-10-12T09:51:23.339Z,1024.22
2016-10-12T09:52:23.356Z,1024.23
2016-10-12T09:53:23.371Z,1024.23
2016-10-12T09:54:23.392Z,1024.15
2016-10-12T09:55:23.410Z,1024.19
2016-10-12T09:56:23.439Z,1024.24
2016-10-12T09:57:23.451Z,1024.24
2016-10-12T09:58:23.471Z,1024.23
2016-10-12T09:59:23.490Z,1024.22
2016-10-12T10:00:23.513Z,1024.21
2016-10-12T10:01:23.531Z,1024.24
2016-10-12T10:02:23.547Z,1024.21
2016-10-12T10:03:23.568Z,1024.31
2016-10-12T10:04:23.640Z,1024.21
2016-10-12T10:05:23.611Z,1024.15
2016-10-12T10:06:23.639Z,1024.12
2016-10-12T10:07:23.643Z,1024.26
2016-10-12T10:08:23.671Z,1024.19
2016-10-12T10:09:23.690Z,1024.18
2016-10-12T10:10:23.704Z,1024.13
2016-10-12T10:11:23.727Z,1024.12
2016-10-12T10:12:23.749Z,1024.1
2016-10-12T10:13:23.772Z,1024.09
2016-10-12T10:14:23.787Z,1024.04
2016-10-12T10:15:23.807Z,1024.06
2016-10-12T10:16:23.841Z,1024.06
2016-10-12T10:17:23.848Z,1024.05
2016-10-12T10:18:23.868Z,1024.11
2016-10-12T10:19:23.887Z,1024.06
2016-10-12T10:20:23.914Z,1024.06
2016-10-12T10:21:23.928Z,1024.12
2016-10-12T10:22:23.946Z,1024.05
2016-10-12T10:23:23.969Z,1024.04
2016-10-12T10:24:23.989Z,1024.01
2016-10-12T10:25:24.016Z,1023.98
2016-10-12T10:26:24.031Z,1023.98
2016-10-12T10:27:24.047Z,1024
2016-10-12T10:28:24.071Z,1023.97
2016-10-12T10:29:24.085Z,1023.93
2016-10-12T10:30:24.113Z,1023.97
2016-10-12T10:31:24.130Z,1023.9
2016-10-12T10:32:24.149Z,1023.89
2016-10-12T10:33:24.173Z,1023.86
2016-10-12T10:34:24.191Z,1023.82
2016-10-12T10:35:24.202Z,1023.79
2016-10-12T10:36:24.225Z,1023.82
2016-10-12T10:37:24.247Z,1023.82
2016-10-12T10:38:24.271Z,1023.84
2016-10-12T10:39:24.274Z,1023.85
2016-10-12T10:40:24.296Z,1023.88
2016-10-12T10:41:24.320Z,1023.81
2016-10-12T10:42:24.340Z,1023.93
2016-10-12T10:43:24.358Z,1023.9
2016-10-12T10:44:24.508Z,1023.95
2016-10-12T10:45:24.396Z,1023.92
2016-10-12T10:46:24.417Z,1023.9
2016-10-12T10:47:24.429Z,1023.85
2016-10-12T10:48:24.458Z,1023.87
2016-10-12T10:49:24.469Z,1023.87
2016-10-12T10:50:24.491Z,1023.82
2016-10-12T10:51:24.510Z,1023.81
2016-10-12T10:52:24.527Z,1023.85
2016-10-12T10:53:24.543Z,1023.86
2016-10-12T10:54:24.567Z,1023.87
2016-10-12T10:55:24.581Z,1023.86
2016-10-12T10:56:24.599Z,1023.87
2016-10-12T10:57:24.631Z,1023.92
2016-10-12T10:58:24.639Z,1023.95
2016-10-12T10:59:24.662Z,1023.91
2016-10-12T11:00:24.674Z,1023.95
2016-10-12T11:01:24.697Z,1023.97
2016-10-12T11:02:24.717Z,1023.96
2016-10-12T11:03:24.744Z,1023.96
2016-10-12T11:04:24.762Z,1023.97
2016-10-12T11:05:24.780Z,1023.97
2016-10-12T11:06:24.801Z,1023.93
2016-10-12T11:07:24.818Z,1023.94
2016-10-12T11:08:24.843Z,1023.94
2016-10-12T11:09:24.847Z,1024.01
2016-10-12T11:10:24.869Z,1023.98
2016-10-12T11:11:24.886Z,1023.96
2016-10-12T11:12:24.911Z,1023.96
2016-10-12T11:13:24.932Z,1023.98
2016-10-12T11:14:24.944Z,1024
2016-10-12T11:15:24.970Z,1024.08
2016-10-12T11:16:24.990Z,1023.97
2016-10-12T11:17:25.006Z,1023.95
2016-10-12T11:18:25.113Z,1023.93
2016-10-12T11:19:25.040Z,1023.98
2016-10-12T11:20:25.109Z,1023.95
2016-10-12T11:21:25.077Z,1023.97
2016-10-12T11:22:25.106Z,1023.95
2016-10-12T11:23:25.117Z,1023.91
2016-10-12T11:24:25.134Z,1023.91
2016-10-12T11:25:25.161Z,1023.86
2016-10-12T11:26:25.169Z,1023.83
2016-10-12T11:27:25.193Z,1023.91
2016-10-12T11:28:25.218Z,1023.88
2016-10-12T11:29:25.234Z,1023.86
2016-10-12T11:30:25.257Z,1023.91
2016-10-12T11:31:25.623Z,1023.94
2016-10-12T11:32:25.291Z,1023.92
2016-10-12T11:33:25.324Z,1023.87
2016-10-12T11:34:25.335Z,1023.84
2016-10-12T11:35:25.349Z,1023.84
2016-10-12T11:36:25.372Z,1023.8
2016-10-12T11:37:25.392Z,1023.82
2016-10-12T11:38:25.407Z,1023.85
2016-10-12T11:39:25.430Z,1023.8
2016-10-12T11:40:25.454Z,1023.79
2016-10-12T11:41:25.468Z,1023.8
2016-10-12T11:42:25.693Z,1023.81
2016-10-12T11:43:25.516Z,1023.83
2016-10-12T11:44:25.618Z,1023.82
2016-10-12T11:45:25.548Z,1023.79
2016-10-12T11:46:25.623Z,1023.8
2016-10-12T11:47:25.590Z,1023.81
2016-10-12T11:48:25.612Z,1023.76
2016-10-12T11:49:25.626Z,1023.81
2016-10-12T11:50:25.659Z,1023.83
2016-10-12T11:51:25.670Z,1023.81
2016-10-12T11:52:25.693Z,1023.78
2016-10-12T11:53:25.708Z,1023.88
2016-10-12T11:54:25.739Z,1023.78
2016-10-12T11:55:25.756Z,1023.78
2016-10-12T11:56:25.770Z,1023.77
2016-10-12T11:57:25.791Z,1023.76
2016-10-12T11:58:25.819Z,1023.78
2016-10-12T11:59:25.841Z,1023.77
2016-10-12T12:00:25.868Z,1023.75
2016-10-12T12:01:25.880Z,1023.74
2016-10-12T12:02:25.900Z,1023.75
2016-10-12T12:03:25.921Z,1023.81
2016-10-12T12:04:25.932Z,1023.72
2016-10-12T12:05:25.961Z,1023.77
2016-10-12T12:06:25.980Z,1023.73
2016-10-12T12:07:25.994Z,1023.72